Jet Cat Express — WDA8695 — position and weather

sailwx.info

Track history (hours):
 
Tides and Currents Weather Stations Pressure Air Temp Water Temp Dewpoint Dewpoint Depression Visibility Wind Speed Wind Dir Waves Ship Positions

Jet Cat Express

Owner: CATALINA CHANNEL EXPRESS INC, LONG BEACH, CA. More information available from US FCC via Universal Licensing System and Coast Guard Vessel Documentation Center.

Last reported at 2018-Jun-19 10:30 UTC. Time now 2018-Jun-19 10:45 UTC.
Position N 33°46' W 118°12'.

Length 44 m; draft 2 m.

Type: High speed craft. MMSI: 366857070.

Date/timePositionNaut miles runAvg speedWind from/ knotsBaromVisibWave heightAir tempDewpointWater temp
2018-Jun-19 10:30N 33°46' W 118°12'0 0.0
2018-Jun-19 10:00N 33°46' W 118°12'0 0.0
2018-Jun-19 09:29N 33°46' W 118°12'0 0.0
2018-Jun-19 09:00N 33°46' W 118°12'0 0.0
2018-Jun-19 08:30N 33°46' W 118°12'0 0.0
2018-Jun-19 08:00N 33°46' W 118°12'0 0.0
2018-Jun-19 07:30N 33°46' W 118°12'0 0.0
2018-Jun-19 07:00N 33°46' W 118°12'0 0.0
2018-Jun-19 06:30N 33°46' W 118°12'0 0.0
2018-Jun-19 05:58N 33°46' W 118°12'0 0.0
2018-Jun-19 05:30N 33°46' W 118°12'0 0.0
2018-Jun-19 05:00N 33°46' W 118°12'0 0.0
2018-Jun-19 04:30N 33°46' W 118°12'0 0.0
2018-Jun-19 03:59N 33°46' W 118°12'0 0.0
2018-Jun-19 03:30N 33°46' W 118°12'0 0.0
2018-Jun-19 03:00N 33°46' W 118°12'0 0.0
2018-Jun-19 02:30N 33°46' W 118°12'510.4
2018-Jun-19 02:01N 33°41' W 118°11'9 4.8
2018-Jun-19 00:11N 33°32' W 118°15'530.4
2018-Jun-19 00:00N 33°38' W 118°13'816.3
2018-Jun-18 23:30N 33°46' W 118°12'0 0.0
2018-Jun-18 23:00N 33°46' W 118°12'0 0.0
2018-Jun-18 22:30N 33°46' W 118°12'612.4
2018-Jun-18 22:01N 33°40' W 118°11'2019.9
2018-Jun-18 21:00N 33°21' W 118°19'1110.9
2018-Jun-18 20:00N 33°31' W 118°15'1427.7
2018-Jun-18 19:30N 33°44' W 118°11'2 3.5
2018-Jun-18 19:00N 33°46' W 118°12'0 0.0
2018-Jun-18 18:30N 33°46' W 118°12'3 5.5
2018-Jun-18 18:01N 33°43' W 118°11'14 6.6
2018-Jun-18 15:56N 33°30' W 118°16'1330.2
2018-Jun-18 15:31N 33°42' W 118°11'3 6.7
2018-Jun-18 15:00N 33°46' W 118°12'0 0.0
2018-Jun-18 14:30N 33°46' W 118°12'0 0.0
2018-Jun-18 14:00N 33°46' W 118°12'1 0.1
2018-Jun-18 05:59N 33°45' W 118°11'14 6.5
2018-Jun-18 03:48N 33°32' W 118°15'930.8
2018-Jun-18 03:31N 33°40' W 118°12'610.9
2018-Jun-18 03:00N 33°46' W 118°12'0 0.0
2018-Jun-18 02:31N 33°46' W 118°12'713.9
2018-Jun-18 02:01N 33°39' W 118°11'7 3.7
2018-Jun-18 00:09N 33°32' W 118°14'430.5
2018-Jun-18 00:01N 33°36' W 118°13'918.7
2018-Jun-17 23:30N 33°46' W 118°12'0 0.0
2018-Jun-17 23:00N 33°46' W 118°12'0 0.0
2018-Jun-17 22:30N 33°46' W 118°12'510.2
2018-Jun-17 22:01N 33°41' W 118°11'2118.7
2018-Jun-17 20:52N 33°21' W 118°19'1 2.2
2018-Jun-17 20:20N 33°22' W 118°19'1130.8
2018-Jun-17 19:58N 33°32' W 118°15'1327.7
2018-Jun-17 19:30N 33°45' W 118°11'1 2.5
2018-Jun-17 19:00N 33°46' W 118°12'0 0.0
2018-Jun-17 18:30N 33°46' W 118°12'3 5.7
2018-Jun-17 18:01N 33°43' W 118°11'13 6.5
2018-Jun-17 16:01N 33°31' W 118°15'129.8
2018-Jun-17 16:00N 33°31' W 118°15'1427.9
2018-Jun-17 15:30N 33°45' W 118°11'1 2.7
2018-Jun-17 15:00N 33°46' W 118°12'0 0.0
2018-Jun-17 14:31N 33°46' W 118°12'0 0.0
2018-Jun-17 14:01N 33°46' W 118°12'0 0.0
2018-Jun-17 13:31N 33°46' W 118°12'0 0.0
2018-Jun-17 06:00N 33°46' W 118°12'2623.7
2018-Jun-17 04:55N 33°21' W 118°19'0 0.0
2018-Jun-17 04:30N 33°21' W 118°19'914.4
2018-Jun-17 03:52N 33°30' W 118°16'1130.3
2018-Jun-17 03:31N 33°40' W 118°12'611.8
2018-Jun-17 03:00N 33°46' W 118°12'0 0.0
2018-Jun-17 02:30N 33°46' W 118°12'714.2
2018-Jun-17 02:01N 33°39' W 118°12'1920.8
2018-Jun-17 01:05N 33°21' W 118°19'0 0.0
2018-Jun-17 00:58N 33°21' W 118°19'812.0
2018-Jun-17 00:16N 33°29' W 118°17'830.6
2018-Jun-17 00:00N 33°36' W 118°14'1018.5
2018-Jun-16 23:29N 33°46' W 118°12'0 0.0
2018-Jun-16 23:00N 33°46' W 118°12'0 0.0
2018-Jun-16 22:30N 33°46' W 118°12'4 9.0
2018-Jun-16 22:00N 33°41' W 118°11'2224.5
2018-Jun-16 21:07N 33°21' W 118°19'0 0.0
2018-Jun-16 20:58N 33°21' W 118°19'1010.2
2018-Jun-16 20:01N 33°30' W 118°16'129.3
2018-Jun-16 19:59N 33°31' W 118°15'1428.8
2018-Jun-16 19:31N 33°44' W 118°11'2 4.0
2018-Jun-16 19:01N 33°46' W 118°12'0 0.0
2018-Jun-16 18:27N 33°46' W 118°12'2 5.4
2018-Jun-16 18:00N 33°44' W 118°11'1731.0
2018-Jun-16 17:28N 33°28' W 118°17'714.4
2018-Jun-16 16:58N 33°21' W 118°19'0 0.0
2018-Jun-16 16:29N 33°21' W 118°19'1121.6
2018-Jun-16 16:00N 33°31' W 118°16'1429.5
2018-Jun-16 15:30N 33°45' W 118°10'2 3.3
2018-Jun-16 15:00N 33°46' W 118°12'0 0.0
2018-Jun-16 14:30N 33°46' W 118°12'0 0.0
2018-Jun-16 14:00N 33°46' W 118°12'0 0.0
2018-Jun-16 13:30N 33°46' W 118°12'0 0.0
2018-Jun-16 13:00N 33°46' W 118°12'0 0.0
2018-Jun-16 12:30N 33°46' W 118°12'0 0.0
2018-Jun-16 06:13N 33°46' W 118°12'0 1.0
2018-Jun-16 06:00N 33°46' W 118°12'1223.6
2018-Jun-16 05:30N 33°34' W 118°14'1427.1
2018-Jun-16 04:59N 33°21' W 118°19'0 0.0
2018-Jun-16 04:28N 33°21' W 118°19'713.7
2018-Jun-16 03:56N 33°28' W 118°17'1330.6
2018-Jun-16 03:31N 33°40' W 118°12'611.0
2018-Jun-16 03:00N 33°46' W 118°12'0 0.0
2018-Jun-16 02:30N 33°46' W 118°12'510.3
2018-Jun-16 02:00N 33°41' W 118°11'1830.3
2018-Jun-16 01:24N 33°24' W 118°18'3 5.7
2018-Jun-16 00:52N 33°21' W 118°19'2 4.9
2018-Jun-16 00:29N 33°22' W 118°18'1430.3
2018-Jun-16 00:00N 33°36' W 118°13'1019.9
2018-Jun-15 23:30N 33°46' W 118°12'0 0.0
2018-Jun-15 23:00N 33°46' W 118°12'0 0.0
2018-Jun-15 22:30N 33°46' W 118°12'4 8.1
2018-Jun-15 22:00N 33°42' W 118°11'2230.7
2018-Jun-15 21:17N 33°21' W 118°19'0 0.9
2018-Jun-15 21:00N 33°21' W 118°19'0 0.0
2018-Jun-15 20:30N 33°21' W 118°19'918.5
2018-Jun-15 20:00N 33°29' W 118°16'1530.8
2018-Jun-15 19:30N 33°44' W 118°11'2 3.7
2018-Jun-15 19:00N 33°46' W 118°12'0 0.0
2018-Jun-15 18:30N 33°46' W 118°12'2 4.7
2018-Jun-15 18:01N 33°44' W 118°11'2428.8
2018-Jun-15 17:10N 33°21' W 118°19'0 0.0
2018-Jun-15 16:52N 33°21' W 118°19'0 0.0
2018-Jun-15 16:30N 33°21' W 118°19'1121.7
2018-Jun-15 16:00N 33°31' W 118°16'1428.2
2018-Jun-15 15:30N 33°45' W 118°11'1 2.5
2018-Jun-15 15:00N 33°46' W 118°12'0 0.0
2018-Jun-15 14:30N 33°46' W 118°12'0 0.0
2018-Jun-15 14:00N 33°46' W 118°12'0 0.0
2018-Jun-15 13:31N 33°46' W 118°12'0 0.0
2018-Jun-15 13:00N 33°46' W 118°12'0 0.0
2018-Jun-15 12:30N 33°46' W 118°12'0 0.0
2018-Jun-15 12:00N 33°46' W 118°12'0 0.0
2018-Jun-15 02:54N 33°46' W 118°12'0 0.0
2018-Jun-15 02:29N 33°46' W 118°12'613.4
2018-Jun-15 02:01N 33°39' W 118°12'1629.1
2018-Jun-15 01:28N 33°24' W 118°18'4 8.1
2018-Jun-15 00:59N 33°21' W 118°19'3 5.7
2018-Jun-15 00:30N 33°23' W 118°18'1530.3
2018-Jun-15 00:00N 33°38' W 118°13'816.0
2018-Jun-14 23:30N 33°46' W 118°12'0 0.0
2018-Jun-14 23:00N 33°46' W 118°12'0 0.0
2018-Jun-14 22:30N 33°46' W 118°12'510.3
2018-Jun-14 22:00N 33°41' W 118°11'2130.4
2018-Jun-14 21:19N 33°21' W 118°19'0 0.8
2018-Jun-14 20:57N 33°21' W 118°19'0 0.0
2018-Jun-14 20:29N 33°21' W 118°19'1224.3
2018-Jun-14 20:01N 33°32' W 118°15'1426.3
2018-Jun-14 19:29N 33°45' W 118°11'1 2.2
2018-Jun-14 19:01N 33°46' W 118°12'0 0.0
2018-Jun-14 18:31N 33°46' W 118°12'3 6.1
2018-Jun-14 18:00N 33°43' W 118°11'1529.6
2018-Jun-14 17:29N 33°28' W 118°16'815.3
2018-Jun-14 16:59N 33°21' W 118°19'0 0.0
2018-Jun-14 16:30N 33°21' W 118°19'918.7
2018-Jun-14 16:00N 33°30' W 118°16'1428.8
2018-Jun-14 15:30N 33°43' W 118°11'2 5.0
2018-Jun-14 15:00N 33°46' W 118°12'0 0.0
2018-Jun-14 14:30N 33°46' W 118°12'0 0.0
2018-Jun-14 14:00N 33°46' W 118°12'0 0.0
2018-Jun-14 13:30N 33°46' W 118°12'0 0.0
2018-Jun-14 13:00N 33°46' W 118°12'0 0.0
2018-Jun-14 12:29N 33°46' W 118°12'0 0.0
2018-Jun-14 12:00N 33°46' W 118°12'0 0.0
2018-Jun-14 11:30N 33°46' W 118°12'0 0.0
2018-Jun-14 11:00N 33°46' W 118°12'0 0.0
2018-Jun-14 10:30N 33°46' W 118°12'0 0.0
2018-Jun-14 10:00N 33°46' W 118°12'0 0.0
2018-Jun-14 09:30N 33°46' W 118°12'0 0.0
2018-Jun-14 09:00N 33°46' W 118°12'0 0.0
2018-Jun-14 08:30N 33°46' W 118°12'0 0.0
2018-Jun-14 08:00N 33°46' W 118°12'0 0.0
2018-Jun-14 07:30N 33°46' W 118°12'0 0.0
2018-Jun-14 07:00N 33°46' W 118°12'0 0.0
2018-Jun-14 06:30N 33°46' W 118°12'0 0.0
2018-Jun-14 06:00N 33°46' W 118°12'0 0.0
2018-Jun-14 05:30N 33°46' W 118°12'0 0.0
2018-Jun-14 05:00N 33°46' W 118°12'0 0.0
2018-Jun-14 04:30N 33°46' W 118°12'0 0.0
2018-Jun-14 04:00N 33°46' W 118°12'0 0.0
2018-Jun-14 03:30N 33°46' W 118°12'0 0.0
2018-Jun-14 03:00N 33°46' W 118°12'0 0.0
2018-Jun-14 02:30N 33°46' W 118°12'0 0.0
2018-Jun-14 02:00N 33°46' W 118°12'0 0.0
2018-Jun-14 01:30N 33°46' W 118°12'0 0.0
2018-Jun-14 01:00N 33°46' W 118°12'0 0.0
2018-Jun-14 00:30N 33°46' W 118°12'0 0.0
2018-Jun-14 00:00N 33°46' W 118°12'0 0.0
2018-Jun-13 23:30N 33°46' W 118°12'0 0.0
2018-Jun-13 23:00N 33°46' W 118°12'0 0.0
2018-Jun-13 22:30N 33°46' W 118°12'0 0.0
2018-Jun-13 22:00N 33°46' W 118°12'0 0.0
2018-Jun-13 21:30N 33°46' W 118°12'0 0.0
2018-Jun-13 21:00N 33°46' W 118°12'0 0.0
2018-Jun-13 20:30N 33°46' W 118°12'0 0.0
2018-Jun-13 20:00N 33°46' W 118°12'0 0.0
2018-Jun-13 19:30N 33°46' W 118°12'0 0.0
2018-Jun-13 19:00N 33°46' W 118°12'0 0.0
2018-Jun-13 18:30N 33°46' W 118°12'0 0.0
2018-Jun-13 18:00N 33°46' W 118°12'0 0.0
2018-Jun-13 17:30N 33°46' W 118°12'0 0.0
2018-Jun-13 17:00N 33°46' W 118°12'0 0.0
2018-Jun-13 16:30N 33°46' W 118°12'0 0.0
2018-Jun-13 16:00N 33°46' W 118°12'0 0.0
2018-Jun-13 15:30N 33°46' W 118°12'0 0.0
2018-Jun-13 15:00N 33°46' W 118°12'0 0.0
2018-Jun-13 14:30N 33°46' W 118°12'0 0.0
2018-Jun-13 14:00N 33°46' W 118°12'0 0.0
2018-Jun-13 13:30N 33°46' W 118°12'0 0.0
2018-Jun-13 13:00N 33°46' W 118°12'0 0.0
2018-Jun-13 12:28N 33°46' W 118°12'0 0.0
2018-Jun-13 12:00N 33°46' W 118°12'0 0.0
2018-Jun-13 11:30N 33°46' W 118°12'0 0.0
2018-Jun-13 11:00N 33°46' W 118°12'0 0.0
2018-Jun-13 10:30N 33°46' W 118°12'0 0.0
2018-Jun-13 10:00N 33°46' W 118°12'0 0.0
2018-Jun-13 09:30N 33°46' W 118°12'0 0.0
2018-Jun-13 09:00N 33°46' W 118°12'0 0.0
2018-Jun-13 08:30N 33°46' W 118°12'0 0.0
2018-Jun-13 08:00N 33°46' W 118°12'0 0.0
2018-Jun-13 07:30N 33°46' W 118°12'0 0.0
2018-Jun-13 07:00N 33°46' W 118°12'0 0.0
2018-Jun-13 06:29N 33°46' W 118°12'0 0.0
2018-Jun-13 05:55N 33°46' W 118°12'0 0.0
2018-Jun-13 05:29N 33°46' W 118°12'0 0.0
2018-Jun-13 05:00N 33°46' W 118°12'0 0.0
2018-Jun-13 04:29N 33°46' W 118°12'0 0.0
2018-Jun-13 03:59N 33°46' W 118°12'0 0.0
2018-Jun-13 03:30N 33°46' W 118°12'0 0.0
2018-Jun-13 03:00N 33°46' W 118°12'0 0.0
2018-Jun-13 02:30N 33°46' W 118°12'713.6
2018-Jun-13 02:01N 33°39' W 118°12'1529.7
2018-Jun-13 01:29N 33°24' W 118°18'4 8.1
2018-Jun-13 01:00N 33°21' W 118°19'812.9
2018-Jun-13 00:22N 33°28' W 118°16'1130.2
2018-Jun-13 00:01N 33°39' W 118°12'714.0
2018-Jun-12 23:30N 33°46' W 118°12'0 0.0
2018-Jun-12 23:00N 33°46' W 118°12'0 0.0
2018-Jun-12 22:30N 33°46' W 118°12'5 9.7
2018-Jun-12 22:01N 33°41' W 118°11'1631.3
2018-Jun-12 21:30N 33°26' W 118°17'611.2
2018-Jun-12 21:00N 33°21' W 118°19'0 0.0
2018-Jun-12 20:30N 33°21' W 118°19'1223.7
2018-Jun-12 20:00N 33°32' W 118°15'1427.2
2018-Jun-12 19:30N 33°45' W 118°11'1 1.5
2018-Jun-12 19:00N 33°46' W 118°12'0 0.0
2018-Jun-12 18:30N 33°46' W 118°12'3 6.1
2018-Jun-12 18:00N 33°43' W 118°11'1631.3
2018-Jun-12 17:30N 33°28' W 118°16'714.9
2018-Jun-12 17:00N 33°21' W 118°19'9 9.5
2018-Jun-12 16:03N 33°29' W 118°15'229.6
2018-Jun-12 15:59N 33°31' W 118°15'1429.8
2018-Jun-12 15:31N 33°45' W 118°11'2 3.1
2018-Jun-12 15:00N 33°46' W 118°12'0 0.0
2018-Jun-12 14:30N 33°46' W 118°12'0 0.0
2018-Jun-12 14:00N 33°46' W 118°12'0 0.0
2018-Jun-12 13:30N 33°46' W 118°12'0 0.0
2018-Jun-12 13:00N 33°46' W 118°12'0 0.0
2018-Jun-12 12:30N 33°46' W 118°12'0 0.0
2018-Jun-12 12:00N 33°46' W 118°12'0 0.0
2018-Jun-12 11:30N 33°46' W 118°12'0 0.0
2018-Jun-12 11:00N 33°46' W 118°12'0 0.0
2018-Jun-12 10:30N 33°46' W 118°12'0 0.0
2018-Jun-12 10:00N 33°46' W 118°12'0 0.0
2018-Jun-12 09:30N 33°46' W 118°12'0 0.0
2018-Jun-12 09:00N 33°46' W 118°12'0 0.0
2018-Jun-12 08:30N 33°46' W 118°12'0 0.0
2018-Jun-12 08:00N 33°46' W 118°12'0 0.0
2018-Jun-12 07:30N 33°46' W 118°12'0 0.0
2018-Jun-12 07:00N 33°46' W 118°12'0 0.0
2018-Jun-12 06:30N 33°46' W 118°12'0 0.0
2018-Jun-12 05:58N 33°46' W 118°12'0 0.0
2018-Jun-12 05:30N 33°46' W 118°12'0 0.0
2018-Jun-12 04:58N 33°46' W 118°12'0 0.0
2018-Jun-12 04:28N 33°46' W 118°12'0 0.0
2018-Jun-12 04:00N 33°46' W 118°12'0 0.0
2018-Jun-12 03:30N 33°46' W 118°12'0 0.0
2018-Jun-12 03:00N 33°46' W 118°12'0 0.0
2018-Jun-12 02:30N 33°46' W 118°12'5 9.9
2018-Jun-12 02:01N 33°41' W 118°11'1530.1
2018-Jun-12 01:30N 33°27' W 118°17'612.4
2018-Jun-12 01:00N 33°21' W 118°19'3 5.3
2018-Jun-12 00:31N 33°23' W 118°18'1631.4
2018-Jun-12 00:01N 33°38' W 118°13'815.6
2018-Jun-11 23:30N 33°46' W 118°12'0 0.0
2018-Jun-11 23:00N 33°46' W 118°12'0 0.0
2018-Jun-11 22:30N 33°46' W 118°12'4 8.4
2018-Jun-11 22:01N 33°42' W 118°11'1631.4
2018-Jun-11 21:29N 33°26' W 118°17'610.2
2018-Jun-11 20:55N 33°21' W 118°19'0 0.0
2018-Jun-11 20:28N 33°21' W 118°19'1125.1
2018-Jun-11 20:00N 33°32' W 118°15'1428.2
2018-Jun-11 19:30N 33°45' W 118°11'1 1.6
2018-Jun-11 19:00N 33°46' W 118°12'0 0.0
2018-Jun-11 18:28N 33°46' W 118°12'3 6.2
2018-Jun-11 18:01N 33°43' W 118°11'2326.4
2018-Jun-11 17:07N 33°21' W 118°19'0 0.0
2018-Jun-11 16:55N 33°21' W 118°19'0 0.0
2018-Jun-11 16:30N 33°21' W 118°19'1118.3
2018-Jun-11 15:54N 33°31' W 118°15'1230.0
2018-Jun-11 15:30N 33°43' W 118°11'3 6.6
2018-Jun-11 15:01N 33°46' W 118°12'0 0.0
2018-Jun-11 14:31N 33°46' W 118°12'0 0.0
2018-Jun-11 14:00N 33°46' W 118°12'0 0.0
2018-Jun-11 13:30N 33°46' W 118°12'0 0.0
2018-Jun-11 13:00N 33°46' W 118°12'0 0.0
2018-Jun-11 12:31N 33°46' W 118°12'0 0.0
2018-Jun-11 12:00N 33°46' W 118°12'0 0.0
2018-Jun-11 02:31N 33°46' W 118°12'0 0.0
2018-Jun-11 02:31N 33°46' W 118°12'611.4
2018-Jun-11 02:00N 33°40' W 118°11'1530.0
2018-Jun-11 01:30N 33°26' W 118°17'611.1
2018-Jun-11 01:00N 33°21' W 118°19'0 0.7
2018-Jun-11 00:30N 33°21' W 118°19'1529.6
2018-Jun-11 00:01N 33°35' W 118°15'1121.2
2018-Jun-10 23:30N 33°46' W 118°12'0 0.0
2018-Jun-10 23:00N 33°46' W 118°12'0 0.0
2018-Jun-10 22:31N 33°46' W 118°12'5 9.3
2018-Jun-10 22:01N 33°41' W 118°11'2230.2
2018-Jun-10 21:18N 33°21' W 118°19'0 0.8
2018-Jun-10 21:00N 33°21' W 118°19'0 0.0
2018-Jun-10 20:30N 33°21' W 118°19'1119.1
2018-Jun-10 19:55N 33°31' W 118°15'1229.4
2018-Jun-10 19:31N 33°43' W 118°11'3 5.8
2018-Jun-10 19:00N 33°46' W 118°12'0 0.0
2018-Jun-10 18:30N 33°46' W 118°12'2 4.3
2018-Jun-10 18:01N 33°44' W 118°11'15 7.3
2018-Jun-10 16:02N 33°30' W 118°16'130.0
2018-Jun-10 16:01N 33°31' W 118°16'1529.3
2018-Jun-10 15:30N 33°45' W 118°10'2 3.3
2018-Jun-10 15:00N 33°46' W 118°12'0 0.0
2018-Jun-10 14:00N 33°46' W 118°12'0 0.0
2018-Jun-10 13:30N 33°46' W 118°12'0 0.0
2018-Jun-10 13:00N 33°46' W 118°12'0 0.0
2018-Jun-10 12:30N 33°46' W 118°12'0 0.0
2018-Jun-10 12:00N 33°46' W 118°12'0 0.0
2018-Jun-10 11:30N 33°46' W 118°12'0 0.0
2018-Jun-10 06:00N 33°46' W 118°12'1223.9
2018-Jun-10 05:30N 33°34' W 118°14'1419.9
2018-Jun-10 04:48N 33°21' W 118°19'0 0.0
2018-Jun-10 04:29N 33°21' W 118°19'1122.4
2018-Jun-10 04:00N 33°31' W 118°16'1529.3
2018-Jun-10 03:30N 33°45' W 118°11'1 1.8
2018-Jun-10 03:00N 33°46' W 118°12'0 0.0
2018-Jun-10 02:30N 33°46' W 118°12'611.6
2018-Jun-10 02:00N 33°40' W 118°11'1530.1
2018-Jun-10 01:30N 33°26' W 118°17'611.0
2018-Jun-10 01:00N 33°21' W 118°19'3 4.6
2018-Jun-10 00:25N 33°23' W 118°18'1330.3
2018-Jun-10 00:00N 33°35' W 118°14'1121.4
2018-Jun-09 23:30N 33°46' W 118°12'0 0.0
2018-Jun-09 23:00N 33°46' W 118°12'0 0.0
2018-Jun-09 22:30N 33°46' W 118°12'510.2
2018-Jun-09 22:00N 33°41' W 118°11'2030.4
2018-Jun-09 21:21N 33°22' W 118°19'1 2.6
2018-Jun-09 20:50N 33°21' W 118°19'1 2.3
2018-Jun-09 20:17N 33°22' W 118°19'929.8
2018-Jun-09 19:58N 33°31' W 118°16'1429.2
2018-Jun-09 19:31N 33°43' W 118°11'2 4.9
2018-Jun-09 19:00N 33°46' W 118°12'0 0.0
2018-Jun-09 18:30N 33°46' W 118°12'2 3.9
2018-Jun-09 18:01N 33°44' W 118°11'9 4.1
2018-Jun-09 15:49N 33°36' W 118°14'1012.5
2018-Jun-09 15:00N 33°46' W 118°12'0 0.0
2018-Jun-09 14:31N 33°46' W 118°12'0 0.0
2018-Jun-09 14:01N 33°46' W 118°12'0 0.0
2018-Jun-09 13:31N 33°46' W 118°12'0 0.0
2018-Jun-09 12:59N 33°46' W 118°12'  
Track history (hours):
 
Tides and Currents Weather Stations Pressure Air Temp Water Temp Dewpoint Dewpoint Depression Visibility Wind Speed Wind Dir Waves Ship Positions

Jet Cat Express

Owner: CATALINA CHANNEL EXPRESS INC, LONG BEACH, CA. More information available from US FCC via Universal Licensing System and Coast Guard Vessel Documentation Center.

Last reported at 2018-Jun-19 10:30 UTC. Time now 2018-Jun-19 10:45 UTC.
Position N 33°46' W 118°12'.

Length 44 m; draft 2 m.

Type: High speed craft. MMSI: 366857070.

Date/timePositionNaut miles runAvg speedWind from/ knotsBaromVisibWave heightAir tempDewpointWater temp
2018-Jun-19 10:30N 33°46' W 118°12'0 0.0
2018-Jun-19 10:00N 33°46' W 118°12'0 0.0
2018-Jun-19 09:29N 33°46' W 118°12'0 0.0
2018-Jun-19 09:00N 33°46' W 118°12'0 0.0
2018-Jun-19 08:30N 33°46' W 118°12'0 0.0
2018-Jun-19 08:00N 33°46' W 118°12'0 0.0
2018-Jun-19 07:30N 33°46' W 118°12'0 0.0
2018-Jun-19 07:00N 33°46' W 118°12'0 0.0
2018-Jun-19 06:30N 33°46' W 118°12'0 0.0
2018-Jun-19 05:58N 33°46' W 118°12'0 0.0
2018-Jun-19 05:30N 33°46' W 118°12'0 0.0
2018-Jun-19 05:00N 33°46' W 118°12'0 0.0
2018-Jun-19 04:30N 33°46' W 118°12'0 0.0
2018-Jun-19 03:59N 33°46' W 118°12'0 0.0
2018-Jun-19 03:30N 33°46' W 118°12'0 0.0
2018-Jun-19 03:00N 33°46' W 118°12'0 0.0
2018-Jun-19 02:30N 33°46' W 118°12'510.4
2018-Jun-19 02:01N 33°41' W 118°11'9 4.8
2018-Jun-19 00:11N 33°32' W 118°15'530.4
2018-Jun-19 00:00N 33°38' W 118°13'816.3
2018-Jun-18 23:30N 33°46' W 118°12'0 0.0
2018-Jun-18 23:00N 33°46' W 118°12'0 0.0
2018-Jun-18 22:30N 33°46' W 118°12'612.4
2018-Jun-18 22:01N 33°40' W 118°11'2019.9
2018-Jun-18 21:00N 33°21' W 118°19'1110.9
2018-Jun-18 20:00N 33°31' W 118°15'1427.7
2018-Jun-18 19:30N 33°44' W 118°11'2 3.5
2018-Jun-18 19:00N 33°46' W 118°12'0 0.0
2018-Jun-18 18:30N 33°46' W 118°12'3 5.5
2018-Jun-18 18:01N 33°43' W 118°11'14 6.6
2018-Jun-18 15:56N 33°30' W 118°16'1330.2
2018-Jun-18 15:31N 33°42' W 118°11'3 6.7
2018-Jun-18 15:00N 33°46' W 118°12'0 0.0
2018-Jun-18 14:30N 33°46' W 118°12'0 0.0
2018-Jun-18 14:00N 33°46' W 118°12'1 0.1
2018-Jun-18 05:59N 33°45' W 118°11'14 6.5
2018-Jun-18 03:48N 33°32' W 118°15'930.8
2018-Jun-18 03:31N 33°40' W 118°12'610.9
2018-Jun-18 03:00N 33°46' W 118°12'0 0.0
2018-Jun-18 02:31N 33°46' W 118°12'713.9
2018-Jun-18 02:01N 33°39' W 118°11'7 3.7
2018-Jun-18 00:09N 33°32' W 118°14'430.5
2018-Jun-18 00:01N 33°36' W 118°13'918.7
2018-Jun-17 23:30N 33°46' W 118°12'0 0.0
2018-Jun-17 23:00N 33°46' W 118°12'0 0.0
2018-Jun-17 22:30N 33°46' W 118°12'510.2
2018-Jun-17 22:01N 33°41' W 118°11'2118.7
2018-Jun-17 20:52N 33°21' W 118°19'1 2.2
2018-Jun-17 20:20N 33°22' W 118°19'1130.8
2018-Jun-17 19:58N 33°32' W 118°15'1327.7
2018-Jun-17 19:30N 33°45' W 118°11'1 2.5
2018-Jun-17 19:00N 33°46' W 118°12'0 0.0
2018-Jun-17 18:30N 33°46' W 118°12'3 5.7
2018-Jun-17 18:01N 33°43' W 118°11'13 6.5
2018-Jun-17 16:01N 33°31' W 118°15'129.8
2018-Jun-17 16:00N 33°31' W 118°15'1427.9
2018-Jun-17 15:30N 33°45' W 118°11'1 2.7
2018-Jun-17 15:00N 33°46' W 118°12'0 0.0
2018-Jun-17 14:31N 33°46' W 118°12'0 0.0
2018-Jun-17 14:01N 33°46' W 118°12'0 0.0
2018-Jun-17 13:31N 33°46' W 118°12'0 0.0
2018-Jun-17 06:00N 33°46' W 118°12'2623.7
2018-Jun-17 04:55N 33°21' W 118°19'0 0.0
2018-Jun-17 04:30N 33°21' W 118°19'914.4
2018-Jun-17 03:52N 33°30' W 118°16'1130.3
2018-Jun-17 03:31N 33°40' W 118°12'611.8
2018-Jun-17 03:00N 33°46' W 118°12'0 0.0
2018-Jun-17 02:30N 33°46' W 118°12'714.2
2018-Jun-17 02:01N 33°39' W 118°12'1920.8
2018-Jun-17 01:05N 33°21' W 118°19'0 0.0
2018-Jun-17 00:58N 33°21' W 118°19'812.0
2018-Jun-17 00:16N 33°29' W 118°17'830.6
2018-Jun-17 00:00N 33°36' W 118°14'1018.5
2018-Jun-16 23:29N 33°46' W 118°12'0 0.0
2018-Jun-16 23:00N 33°46' W 118°12'0 0.0
2018-Jun-16 22:30N 33°46' W 118°12'4 9.0
2018-Jun-16 22:00N 33°41' W 118°11'2224.5
2018-Jun-16 21:07N 33°21' W 118°19'0 0.0
2018-Jun-16 20:58N 33°21' W 118°19'1010.2
2018-Jun-16 20:01N 33°30' W 118°16'129.3
2018-Jun-16 19:59N 33°31' W 118°15'1428.8
2018-Jun-16 19:31N 33°44' W 118°11'2 4.0
2018-Jun-16 19:01N 33°46' W 118°12'0 0.0
2018-Jun-16 18:27N 33°46' W 118°12'2 5.4
2018-Jun-16 18:00N 33°44' W 118°11'1731.0
2018-Jun-16 17:28N 33°28' W 118°17'714.4
2018-Jun-16 16:58N 33°21' W 118°19'0 0.0
2018-Jun-16 16:29N 33°21' W 118°19'1121.6
2018-Jun-16 16:00N 33°31' W 118°16'1429.5
2018-Jun-16 15:30N 33°45' W 118°10'2 3.3
2018-Jun-16 15:00N 33°46' W 118°12'0 0.0
2018-Jun-16 14:30N 33°46' W 118°12'0 0.0
2018-Jun-16 14:00N 33°46' W 118°12'0 0.0
2018-Jun-16 13:30N 33°46' W 118°12'0 0.0
2018-Jun-16 13:00N 33°46' W 118°12'0 0.0
2018-Jun-16 12:30N 33°46' W 118°12'0 0.0
2018-Jun-16 06:13N 33°46' W 118°12'0 1.0
2018-Jun-16 06:00N 33°46' W 118°12'1223.6
2018-Jun-16 05:30N 33°34' W 118°14'1427.1
2018-Jun-16 04:59N 33°21' W 118°19'0 0.0
2018-Jun-16 04:28N 33°21' W 118°19'713.7
2018-Jun-16 03:56N 33°28' W 118°17'1330.6
2018-Jun-16 03:31N 33°40' W 118°12'611.0
2018-Jun-16 03:00N 33°46' W 118°12'0 0.0
2018-Jun-16 02:30N 33°46' W 118°12'510.3
2018-Jun-16 02:00N 33°41' W 118°11'1830.3
2018-Jun-16 01:24N 33°24' W 118°18'3 5.7
2018-Jun-16 00:52N 33°21' W 118°19'2 4.9
2018-Jun-16 00:29N 33°22' W 118°18'1430.3
2018-Jun-16 00:00N 33°36' W 118°13'1019.9
2018-Jun-15 23:30N 33°46' W 118°12'0 0.0
2018-Jun-15 23:00N 33°46' W 118°12'0 0.0
2018-Jun-15 22:30N 33°46' W 118°12'4 8.1
2018-Jun-15 22:00N 33°42' W 118°11'2230.7
2018-Jun-15 21:17N 33°21' W 118°19'0 0.9
2018-Jun-15 21:00N 33°21' W 118°19'0 0.0
2018-Jun-15 20:30N 33°21' W 118°19'918.5
2018-Jun-15 20:00N 33°29' W 118°16'1530.8
2018-Jun-15 19:30N 33°44' W 118°11'2 3.7
2018-Jun-15 19:00N 33°46' W 118°12'0 0.0
2018-Jun-15 18:30N 33°46' W 118°12'2 4.7
2018-Jun-15 18:01N 33°44' W 118°11'2428.8
2018-Jun-15 17:10N 33°21' W 118°19'0 0.0
2018-Jun-15 16:52N 33°21' W 118°19'0 0.0
2018-Jun-15 16:30N 33°21' W 118°19'1121.7
2018-Jun-15 16:00N 33°31' W 118°16'1428.2
2018-Jun-15 15:30N 33°45' W 118°11'1 2.5
2018-Jun-15 15:00N 33°46' W 118°12'0 0.0
2018-Jun-15 14:30N 33°46' W 118°12'0 0.0
2018-Jun-15 14:00N 33°46' W 118°12'0 0.0
2018-Jun-15 13:31N 33°46' W 118°12'0 0.0
2018-Jun-15 13:00N 33°46' W 118°12'0 0.0
2018-Jun-15 12:30N 33°46' W 118°12'0 0.0
2018-Jun-15 12:00N 33°46' W 118°12'0 0.0
2018-Jun-15 02:54N 33°46' W 118°12'0 0.0
2018-Jun-15 02:29N 33°46' W 118°12'613.4
2018-Jun-15 02:01N 33°39' W 118°12'1629.1
2018-Jun-15 01:28N 33°24' W 118°18'4 8.1
2018-Jun-15 00:59N 33°21' W 118°19'3 5.7
2018-Jun-15 00:30N 33°23' W 118°18'1530.3
2018-Jun-15 00:00N 33°38' W 118°13'816.0
2018-Jun-14 23:30N 33°46' W 118°12'0 0.0
2018-Jun-14 23:00N 33°46' W 118°12'0 0.0
2018-Jun-14 22:30N 33°46' W 118°12'510.3
2018-Jun-14 22:00N 33°41' W 118°11'2130.4
2018-Jun-14 21:19N 33°21' W 118°19'0 0.8
2018-Jun-14 20:57N 33°21' W 118°19'0 0.0
2018-Jun-14 20:29N 33°21' W 118°19'1224.3
2018-Jun-14 20:01N 33°32' W 118°15'1426.3
2018-Jun-14 19:29N 33°45' W 118°11'1 2.2
2018-Jun-14 19:01N 33°46' W 118°12'0 0.0
2018-Jun-14 18:31N 33°46' W 118°12'3 6.1
2018-Jun-14 18:00N 33°43' W 118°11'1529.6
2018-Jun-14 17:29N 33°28' W 118°16'815.3
2018-Jun-14 16:59N 33°21' W 118°19'0 0.0
2018-Jun-14 16:30N 33°21' W 118°19'918.7
2018-Jun-14 16:00N 33°30' W 118°16'1428.8
2018-Jun-14 15:30N 33°43' W 118°11'2 5.0
2018-Jun-14 15:00N 33°46' W 118°12'0 0.0
2018-Jun-14 14:30N 33°46' W 118°12'0 0.0
2018-Jun-14 14:00N 33°46' W 118°12'0 0.0
2018-Jun-14 13:30N 33°46' W 118°12'0 0.0
2018-Jun-14 13:00N 33°46' W 118°12'0 0.0
2018-Jun-14 12:29N 33°46' W 118°12'0 0.0
2018-Jun-14 12:00N 33°46' W 118°12'0 0.0
2018-Jun-14 11:30N 33°46' W 118°12'0 0.0
2018-Jun-14 11:00N 33°46' W 118°12'0 0.0
2018-Jun-14 10:30N 33°46' W 118°12'0 0.0
2018-Jun-14 10:00N 33°46' W 118°12'0 0.0
2018-Jun-14 09:30N 33°46' W 118°12'0 0.0
2018-Jun-14 09:00N 33°46' W 118°12'0 0.0
2018-Jun-14 08:30N 33°46' W 118°12'0 0.0
2018-Jun-14 08:00N 33°46' W 118°12'0 0.0
2018-Jun-14 07:30N 33°46' W 118°12'0 0.0
2018-Jun-14 07:00N 33°46' W 118°12'0 0.0
2018-Jun-14 06:30N 33°46' W 118°12'0 0.0
2018-Jun-14 06:00N 33°46' W 118°12'0 0.0
2018-Jun-14 05:30N 33°46' W 118°12'0 0.0
2018-Jun-14 05:00N 33°46' W 118°12'0 0.0
2018-Jun-14 04:30N 33°46' W 118°12'0 0.0
2018-Jun-14 04:00N 33°46' W 118°12'0 0.0
2018-Jun-14 03:30N 33°46' W 118°12'0 0.0
2018-Jun-14 03:00N 33°46' W 118°12'0 0.0
2018-Jun-14 02:30N 33°46' W 118°12'0 0.0
2018-Jun-14 02:00N 33°46' W 118°12'0 0.0
2018-Jun-14 01:30N 33°46' W 118°12'0 0.0
2018-Jun-14 01:00N 33°46' W 118°12'0 0.0
2018-Jun-14 00:30N 33°46' W 118°12'0 0.0
2018-Jun-14 00:00N 33°46' W 118°12'0 0.0
2018-Jun-13 23:30N 33°46' W 118°12'0 0.0
2018-Jun-13 23:00N 33°46' W 118°12'0 0.0
2018-Jun-13 22:30N 33°46' W 118°12'0 0.0
2018-Jun-13 22:00N 33°46' W 118°12'0 0.0
2018-Jun-13 21:30N 33°46' W 118°12'0 0.0
2018-Jun-13 21:00N 33°46' W 118°12'0 0.0
2018-Jun-13 20:30N 33°46' W 118°12'0 0.0
2018-Jun-13 20:00N 33°46' W 118°12'0 0.0
2018-Jun-13 19:30N 33°46' W 118°12'0 0.0
2018-Jun-13 19:00N 33°46' W 118°12'0 0.0
2018-Jun-13 18:30N 33°46' W 118°12'0 0.0
2018-Jun-13 18:00N 33°46' W 118°12'0 0.0
2018-Jun-13 17:30N 33°46' W 118°12'0 0.0
2018-Jun-13 17:00N 33°46' W 118°12'0 0.0
2018-Jun-13 16:30N 33°46' W 118°12'0 0.0
2018-Jun-13 16:00N 33°46' W 118°12'0 0.0
2018-Jun-13 15:30N 33°46' W 118°12'0 0.0
2018-Jun-13 15:00N 33°46' W 118°12'0 0.0
2018-Jun-13 14:30N 33°46' W 118°12'0 0.0
2018-Jun-13 14:00N 33°46' W 118°12'0 0.0
2018-Jun-13 13:30N 33°46' W 118°12'0 0.0
2018-Jun-13 13:00N 33°46' W 118°12'0 0.0
2018-Jun-13 12:28N 33°46' W 118°12'0 0.0
2018-Jun-13 12:00N 33°46' W 118°12'0 0.0
2018-Jun-13 11:30N 33°46' W 118°12'0 0.0
2018-Jun-13 11:00N 33°46' W 118°12'0 0.0
2018-Jun-13 10:30N 33°46' W 118°12'0 0.0
2018-Jun-13 10:00N 33°46' W 118°12'0 0.0
2018-Jun-13 09:30N 33°46' W 118°12'0 0.0
2018-Jun-13 09:00N 33°46' W 118°12'0 0.0
2018-Jun-13 08:30N 33°46' W 118°12'0 0.0
2018-Jun-13 08:00N 33°46' W 118°12'0 0.0
2018-Jun-13 07:30N 33°46' W 118°12'0 0.0
2018-Jun-13 07:00N 33°46' W 118°12'0 0.0
2018-Jun-13 06:29N 33°46' W 118°12'0 0.0
2018-Jun-13 05:55N 33°46' W 118°12'0 0.0
2018-Jun-13 05:29N 33°46' W 118°12'0 0.0
2018-Jun-13 05:00N 33°46' W 118°12'0 0.0
2018-Jun-13 04:29N 33°46' W 118°12'0 0.0
2018-Jun-13 03:59N 33°46' W 118°12'0 0.0
2018-Jun-13 03:30N 33°46' W 118°12'0 0.0
2018-Jun-13 03:00N 33°46' W 118°12'0 0.0
2018-Jun-13 02:30N 33°46' W 118°12'713.6
2018-Jun-13 02:01N 33°39' W 118°12'1529.7
2018-Jun-13 01:29N 33°24' W 118°18'4 8.1
2018-Jun-13 01:00N 33°21' W 118°19'812.9
2018-Jun-13 00:22N 33°28' W 118°16'1130.2
2018-Jun-13 00:01N 33°39' W 118°12'714.0
2018-Jun-12 23:30N 33°46' W 118°12'0 0.0
2018-Jun-12 23:00N 33°46' W 118°12'0 0.0
2018-Jun-12 22:30N 33°46' W 118°12'5 9.7
2018-Jun-12 22:01N 33°41' W 118°11'1631.3
2018-Jun-12 21:30N 33°26' W 118°17'611.2
2018-Jun-12 21:00N 33°21' W 118°19'0 0.0
2018-Jun-12 20:30N 33°21' W 118°19'1223.7
2018-Jun-12 20:00N 33°32' W 118°15'1427.2
2018-Jun-12 19:30N 33°45' W 118°11'1 1.5
2018-Jun-12 19:00N 33°46' W 118°12'0 0.0
2018-Jun-12 18:30N 33°46' W 118°12'3 6.1
2018-Jun-12 18:00N 33°43' W 118°11'1631.3
2018-Jun-12 17:30N 33°28' W 118°16'714.9
2018-Jun-12 17:00N 33°21' W 118°19'9 9.5
2018-Jun-12 16:03N 33°29' W 118°15'229.6
2018-Jun-12 15:59N 33°31' W 118°15'1429.8
2018-Jun-12 15:31N 33°45' W 118°11'2 3.1
2018-Jun-12 15:00N 33°46' W 118°12'0 0.0
2018-Jun-12 14:30N 33°46' W 118°12'0 0.0
2018-Jun-12 14:00N 33°46' W 118°12'0 0.0
2018-Jun-12 13:30N 33°46' W 118°12'0 0.0
2018-Jun-12 13:00N 33°46' W 118°12'0 0.0
2018-Jun-12 12:30N 33°46' W 118°12'0 0.0
2018-Jun-12 12:00N 33°46' W 118°12'0 0.0
2018-Jun-12 11:30N 33°46' W 118°12'0 0.0
2018-Jun-12 11:00N 33°46' W 118°12'0 0.0
2018-Jun-12 10:30N 33°46' W 118°12'0 0.0
2018-Jun-12 10:00N 33°46' W 118°12'0 0.0
2018-Jun-12 09:30N 33°46' W 118°12'0 0.0
2018-Jun-12 09:00N 33°46' W 118°12'0 0.0
2018-Jun-12 08:30N 33°46' W 118°12'0 0.0
2018-Jun-12 08:00N 33°46' W 118°12'0 0.0
2018-Jun-12 07:30N 33°46' W 118°12'0 0.0
2018-Jun-12 07:00N 33°46' W 118°12'0 0.0
2018-Jun-12 06:30N 33°46' W 118°12'0 0.0
2018-Jun-12 05:58N 33°46' W 118°12'0 0.0
2018-Jun-12 05:30N 33°46' W 118°12'0 0.0
2018-Jun-12 04:58N 33°46' W 118°12'0 0.0
2018-Jun-12 04:28N 33°46' W 118°12'0 0.0
2018-Jun-12 04:00N 33°46' W 118°12'0 0.0
2018-Jun-12 03:30N 33°46' W 118°12'0 0.0
2018-Jun-12 03:00N 33°46' W 118°12'0 0.0
2018-Jun-12 02:30N 33°46' W 118°12'5 9.9
2018-Jun-12 02:01N 33°41' W 118°11'1530.1
2018-Jun-12 01:30N 33°27' W 118°17'612.4
2018-Jun-12 01:00N 33°21' W 118°19'3 5.3
2018-Jun-12 00:31N 33°23' W 118°18'1631.4
2018-Jun-12 00:01N 33°38' W 118°13'815.6
2018-Jun-11 23:30N 33°46' W 118°12'0 0.0
2018-Jun-11 23:00N 33°46' W 118°12'0 0.0
2018-Jun-11 22:30N 33°46' W 118°12'4 8.4
2018-Jun-11 22:01N 33°42' W 118°11'1631.4
2018-Jun-11 21:29N 33°26' W 118°17'610.2
2018-Jun-11 20:55N 33°21' W 118°19'0 0.0
2018-Jun-11 20:28N 33°21' W 118°19'1125.1
2018-Jun-11 20:00N 33°32' W 118°15'1428.2
2018-Jun-11 19:30N 33°45' W 118°11'1 1.6
2018-Jun-11 19:00N 33°46' W 118°12'0 0.0
2018-Jun-11 18:28N 33°46' W 118°12'3 6.2
2018-Jun-11 18:01N 33°43' W 118°11'2326.4
2018-Jun-11 17:07N 33°21' W 118°19'0 0.0
2018-Jun-11 16:55N 33°21' W 118°19'0 0.0
2018-Jun-11 16:30N 33°21' W 118°19'1118.3
2018-Jun-11 15:54N 33°31' W 118°15'1230.0
2018-Jun-11 15:30N 33°43' W 118°11'3 6.6
2018-Jun-11 15:01N 33°46' W 118°12'0 0.0
2018-Jun-11 14:31N 33°46' W 118°12'0 0.0
2018-Jun-11 14:00N 33°46' W 118°12'0 0.0
2018-Jun-11 13:30N 33°46' W 118°12'0 0.0
2018-Jun-11 13:00N 33°46' W 118°12'0 0.0
2018-Jun-11 12:31N 33°46' W 118°12'0 0.0
2018-Jun-11 12:00N 33°46' W 118°12'0 0.0
2018-Jun-11 02:31N 33°46' W 118°12'0 0.0
2018-Jun-11 02:31N 33°46' W 118°12'611.4
2018-Jun-11 02:00N 33°40' W 118°11'1530.0
2018-Jun-11 01:30N 33°26' W 118°17'611.1
2018-Jun-11 01:00N 33°21' W 118°19'0 0.7
2018-Jun-11 00:30N 33°21' W 118°19'1529.6
2018-Jun-11 00:01N 33°35' W 118°15'1121.2
2018-Jun-10 23:30N 33°46' W 118°12'0 0.0
2018-Jun-10 23:00N 33°46' W 118°12'0 0.0
2018-Jun-10 22:31N 33°46' W 118°12'5 9.3
2018-Jun-10 22:01N 33°41' W 118°11'2230.2
2018-Jun-10 21:18N 33°21' W 118°19'0 0.8
2018-Jun-10 21:00N 33°21' W 118°19'0 0.0
2018-Jun-10 20:30N 33°21' W 118°19'1119.1
2018-Jun-10 19:55N 33°31' W 118°15'1229.4
2018-Jun-10 19:31N 33°43' W 118°11'3 5.8
2018-Jun-10 19:00N 33°46' W 118°12'0 0.0
2018-Jun-10 18:30N 33°46' W 118°12'2 4.3
2018-Jun-10 18:01N 33°44' W 118°11'15 7.3
2018-Jun-10 16:02N 33°30' W 118°16'130.0
2018-Jun-10 16:01N 33°31' W 118°16'1529.3
2018-Jun-10 15:30N 33°45' W 118°10'2 3.3
2018-Jun-10 15:00N 33°46' W 118°12'0 0.0
2018-Jun-10 14:00N 33°46' W 118°12'0 0.0
2018-Jun-10 13:30N 33°46' W 118°12'0 0.0
2018-Jun-10 13:00N 33°46' W 118°12'0 0.0
2018-Jun-10 12:30N 33°46' W 118°12'0 0.0
2018-Jun-10 12:00N 33°46' W 118°12'0 0.0
2018-Jun-10 11:30N 33°46' W 118°12'0 0.0
2018-Jun-10 06:00N 33°46' W 118°12'1223.9
2018-Jun-10 05:30N 33°34' W 118°14'1419.9
2018-Jun-10 04:48N 33°21' W 118°19'0 0.0
2018-Jun-10 04:29N 33°21' W 118°19'1122.4
2018-Jun-10 04:00N 33°31' W 118°16'1529.3
2018-Jun-10 03:30N 33°45' W 118°11'1 1.8
2018-Jun-10 03:00N 33°46' W 118°12'0 0.0
2018-Jun-10 02:30N 33°46' W 118°12'611.6
2018-Jun-10 02:00N 33°40' W 118°11'1530.1
2018-Jun-10 01:30N 33°26' W 118°17'611.0
2018-Jun-10 01:00N 33°21' W 118°19'3 4.6
2018-Jun-10 00:25N 33°23' W 118°18'1330.3
2018-Jun-10 00:00N 33°35' W 118°14'1121.4
2018-Jun-09 23:30N 33°46' W 118°12'0 0.0
2018-Jun-09 23:00N 33°46' W 118°12'0 0.0
2018-Jun-09 22:30N 33°46' W 118°12'510.2
2018-Jun-09 22:00N 33°41' W 118°11'2030.4
2018-Jun-09 21:21N 33°22' W 118°19'1 2.6
2018-Jun-09 20:50N 33°21' W 118°19'1 2.3
2018-Jun-09 20:17N 33°22' W 118°19'929.8
2018-Jun-09 19:58N 33°31' W 118°16'1429.2
2018-Jun-09 19:31N 33°43' W 118°11'2 4.9
2018-Jun-09 19:00N 33°46' W 118°12'0 0.0
2018-Jun-09 18:30N 33°46' W 118°12'2 3.9
2018-Jun-09 18:01N 33°44' W 118°11'9 4.1
2018-Jun-09 15:49N 33°36' W 118°14'1012.5
2018-Jun-09 15:00N 33°46' W 118°12'0 0.0
2018-Jun-09 14:31N 33°46' W 118°12'0 0.0
2018-Jun-09 14:01N 33°46' W 118°12'0 0.0
2018-Jun-09 13:31N 33°46' W 118°12'0 0.0
2018-Jun-09 12:59N 33°46' W 118°12'  

Dump ship's entire track history